Time;durP1;ratioP1;P1;durP2;ratioP2;P2;SDS_P1;SDS_P2;PMS_P1;PMS_P2;Temp;Humidity;BMP_temperature;BMP_pressure;BME280_temperature;BME280_humidity;BME280_pressure;Samples;Min_cycle;Max_cycle;Signal;HPM_P1;HPM_P2
2021/06/23 00:02:00;;;;;;;8.55;7.75;;;;;;;;;;5046263;28;20052;-37
2021/06/23 00:04:27;;;;;;;6.65;5.95;;;;;;;;;;5068904;28;20045;-37
2021/06/23 00:06:54;;;;;;;9.45;8.55;;;;;;;;;;5063773;28;20516;-38
2021/06/23 00:09:21;;;;;;;8.73;7.82;;;;;;;;;;5051949;28;20076;-38
2021/06/23 00:11:51;;;;;;;6.57;5.95;;;;;;;;;;5052802;28;20194;-38
2021/06/23 00:14:18;;;;;;;10.20;6.75;;;;;;;;;;5053358;28;20340;-37
2021/06/23 00:16:45;;;;;;;8.75;7.30;;;;;;;;;;5066570;28;20072;-37
2021/06/23 00:19:12;;;;;;;7.80;6.95;;;;;;;;;;5042964;28;20136;-36
2021/06/23 00:21:38;;;;;;;7.65;5.85;;;;;;;;;;5039942;28;20048;-36
2021/06/23 00:24:05;;;;;;;7.78;6.82;;;;;;;;;;5073350;28;20105;-37
2021/06/23 00:26:33;;;;;;;7.20;6.50;;;;;;;;;;5055646;28;20045;-37
2021/06/23 00:29:00;;;;;;;7.70;6.88;;;;;;;;;;5053118;28;20060;-37
2021/06/23 00:31:28;;;;;;;9.10;7.32;;;;;;;;;;5035882;28;20132;-37
2021/06/23 00:33:56;;;;;;;8.20;7.30;;;;;;;;;;5068874;28;20044;-37
2021/06/23 00:36:23;;;;;;;5.53;4.85;;;;;;;;;;5068429;28;20129;-36
2021/06/23 00:38:50;;;;;;;4.85;4.35;;;;;;;;;;5052790;28;20131;-36
2021/06/23 00:41:18;;;;;;;4.30;3.03;;;;;;;;;;5067928;28;20052;-37
2021/06/23 00:43:48;;;;;;;5.32;4.32;;;;;;;;;;5033148;28;20570;-37
2021/06/23 00:46:15;;;;;;;4.82;2.97;;;;;;;;;;5047676;28;20123;-36
2021/06/23 00:48:59;;;;;;;4.70;3.30;;;;;;;;;;5085318;28;20106;-37
2021/06/23 00:51:27;;;;;;;6.85;4.63;;;;;;;;;;5085610;28;20053;-37
2021/06/23 00:54:09;;;;;;;5.07;4.13;;;;;;;;;;5071319;28;20055;-37
2021/06/23 00:56:36;;;;;;;6.45;4.72;;;;;;;;;;5067159;28;20098;-37
2021/06/23 00:59:05;;;;;;;5.60;5.10;;;;;;;;;;5072763;28;20057;-37
2021/06/23 01:01:33;;;;;;;6.43;5.20;;;;;;;;;;5051800;28;20053;-37
2021/06/23 01:04:02;;;;;;;6.50;5.57;;;;;;;;;;5050838;28;20123;-37
2021/06/23 01:06:32;;;;;;;6.85;6.15;;;;;;;;;;5050996;28;20041;-37
2021/06/23 01:09:00;;;;;;;9.00;6.63;;;;;;;;;;5058171;28;20068;-36
2021/06/23 01:11:28;;;;;;;7.88;6.53;;;;;;;;;;5051918;28;20099;-37
2021/06/23 01:14:03;;;;;;;8.45;7.65;;;;;;;;;;5051340;28;20091;-37
2021/06/23 01:16:31;;;;;;;9.52;8.63;;;;;;;;;;5061428;28;20064;-37
2021/06/23 01:18:59;;;;;;;10.82;7.97;;;;;;;;;;5054748;28;20076;-37
2021/06/23 01:21:30;;;;;;;9.70;8.80;;;;;;;;;;5063564;28;20534;-36
2021/06/23 01:23:57;;;;;;;12.10;10.80;;;;;;;;;;5060268;28;20049;-37
2021/06/23 01:26:24;;;;;;;10.52;9.52;;;;;;;;;;5069344;28;20056;-36
2021/06/23 01:28:51;;;;;;;10.85;9.80;;;;;;;;;;5070440;28;20068;-36
2021/06/23 01:31:29;;;;;;;11.20;10.10;;;;;;;;;;5045310;28;20528;-36
2021/06/23 01:33:56;;;;;;;12.02;10.75;;;;;;;;;;5051259;28;20102;-36
2021/06/23 01:36:23;;;;;;;12.05;10.95;;;;;;;;;;5050047;28;20065;-37
2021/06/23 01:38:51;;;;;;;13.88;11.15;;;;;;;;;;5049936;28;20121;-36
2021/06/23 01:41:18;;;;;;;13.70;12.40;;;;;;;;;;5035188;28;20045;-37
2021/06/23 01:43:46;;;;;;;12.43;11.18;;;;;;;;;;5031157;28;20049;-38
2021/06/23 01:46:13;;;;;;;12.70;11.02;;;;;;;;;;5062101;28;20106;-38
2021/06/23 01:48:41;;;;;;;13.85;12.55;;;;;;;;;;5046882;28;20510;-38
2021/06/23 01:51:09;;;;;;;13.85;12.48;;;;;;;;;;5047179;28;20118;-38
2021/06/23 01:53:39;;;;;;;13.07;11.77;;;;;;;;;;5032967;28;20080;-37
2021/06/23 01:56:07;;;;;;;12.23;11.02;;;;;;;;;;5057426;28;20048;-37
2021/06/23 01:58:39;;;;;;;13.38;11.98;;;;;;;;;;5056345;28;20044;-37
2021/06/23 02:01:39;;;;;;;13.77;11.32;;;;;;;;;;5034087;28;20421;-38
2021/06/23 02:04:10;;;;;;;12.68;11.48;;;;;;;;;;5052801;28;20049;-38
2021/06/23 02:07:09;;;;;;;12.07;10.98;;;;;;;;;;5062405;28;20219;-38
2021/06/23 02:09:36;;;;;;;12.32;11.02;;;;;;;;;;5052360;28;20056;-37
2021/06/23 02:12:12;;;;;;;14.35;10.55;;;;;;;;;;5031595;28;20132;-37
2021/06/23 02:14:41;;;;;;;12.55;10.88;;;;;;;;;;5052812;28;20044;-37
2021/06/23 02:17:31;;;;;;;13.13;11.82;;;;;;;;;;5042309;28;20040;-38
2021/06/23 02:20:08;;;;;;;13.50;12.10;;;;;;;;;;5050179;28;20045;-38
2021/06/23 02:22:40;;;;;;;13.55;12.15;;;;;;;;;;5032702;28;20049;-38
2021/06/23 02:25:22;;;;;;;12.50;11.30;;;;;;;;;;5054509;28;20132;-38
2021/06/23 02:28:09;;;;;;;13.20;11.80;;;;;;;;;;5047206;28;20063;-38
2021/06/23 02:30:37;;;;;;;12.63;11.32;;;;;;;;;;5057703;28;20049;-38
2021/06/23 02:33:06;;;;;;;12.63;11.43;;;;;;;;;;5049769;28;20045;-38
2021/06/23 02:35:43;;;;;;;12.05;10.85;;;;;;;;;;5048304;28;20055;-38
2021/06/23 02:38:24;;;;;;;12.23;10.68;;;;;;;;;;5060323;28;20064;-37
2021/06/23 02:40:52;;;;;;;12.55;11.25;;;;;;;;;;5048621;28;20091;-38
2021/06/23 02:43:20;;;;;;;11.38;10.27;;;;;;;;;;5068705;28;20110;-38
2021/06/23 02:45:49;;;;;;;11.07;9.90;;;;;;;;;;5067431;28;20493;-38
2021/06/23 02:48:19;;;;;;;12.38;11.23;;;;;;;;;;5059500;28;20053;-38
2021/06/23 02:51:01;;;;;;;11.95;10.75;;;;;;;;;;5057019;28;20048;-38
2021/06/23 02:53:31;;;;;;;12.55;11.43;;;;;;;;;;5045403;28;20051;-38
2021/06/23 02:56:00;;;;;;;11.85;10.73;;;;;;;;;;5071773;28;20076;-37
2021/06/23 02:58:36;;;;;;;13.10;11.80;;;;;;;;;;5045919;28;20160;-38
2021/06/23 03:01:03;;;;;;;12.20;11.00;;;;;;;;;;5041864;28;20049;-38
2021/06/23 03:03:39;;;;;;;12.15;10.95;;;;;;;;;;5064320;28;20494;-38
2021/06/23 03:06:06;;;;;;;10.45;9.45;;;;;;;;;;5063254;28;20049;-38
2021/06/23 03:08:34;;;;;;;12.90;11.43;;;;;;;;;;5068214;28;20052;-38
2021/06/23 03:11:02;;;;;;;12.45;11.18;;;;;;;;;;5060870;28;20131;-37
2021/06/23 03:13:47;;;;;;;12.52;11.23;;;;;;;;;;5067525;28;20133;-38
2021/06/23 03:16:23;;;;;;;10.70;9.70;;;;;;;;;;5059903;28;20052;-38
2021/06/23 03:18:50;;;;;;;10.73;9.68;;;;;;;;;;5049122;28;21150;-38
2021/06/23 03:21:17;;;;;;;12.43;11.23;;;;;;;;;;5053600;28;20117;-38
2021/06/23 03:23:50;;;;;;;12.25;11.07;;;;;;;;;;5052487;28;20545;-38
2021/06/23 03:26:21;;;;;;;11.48;10.32;;;;;;;;;;5058427;28;20079;-38
2021/06/23 03:28:52;;;;;;;11.43;10.27;;;;;;;;;;5067912;28;20055;-38
2021/06/23 03:31:21;;;;;;;12.02;10.85;;;;;;;;;;5056618;28;20073;-37
2021/06/23 03:33:48;;;;;;;11.50;10.40;;;;;;;;;;5047940;28;20990;-37
2021/06/23 03:36:46;;;;;;;11.50;10.30;;;;;;;;;;5039763;28;20155;-38
2021/06/23 03:39:14;;;;;;;11.85;10.50;;;;;;;;;;5071319;28;20473;-37
2021/06/23 03:41:52;;;;;;;11.38;10.18;;;;;;;;;;5061829;28;20080;-37
2021/06/23 03:44:20;;;;;;;9.90;9.00;;;;;;;;;;5052482;28;20465;-38
2021/06/23 03:46:46;;;;;;;12.15;8.95;;;;;;;;;;5057180;28;20088;-38
2021/06/23 03:49:14;;;;;;;9.50;8.57;;;;;;;;;;5071353;28;20056;-38
2021/06/23 03:51:41;;;;;;;11.63;10.15;;;;;;;;;;5046568;28;20044;-37
2021/06/23 03:54:09;;;;;;;10.57;8.50;;;;;;;;;;5069761;28;20521;-37
2021/06/23 03:56:42;;;;;;;10.63;9.10;;;;;;;;;;5062956;28;20051;-37
2021/06/23 03:59:09;;;;;;;10.50;9.43;;;;;;;;;;5072208;28;20146;-36
2021/06/23 04:01:36;;;;;;;10.23;9.23;;;;;;;;;;5066272;28;20371;-37
2021/06/23 04:04:14;;;;;;;11.40;10.27;;;;;;;;;;5050511;28;20443;-38
2021/06/23 04:06:44;;;;;;;11.40;10.30;;;;;;;;;;5057552;28;20095;-38
2021/06/23 04:09:13;;;;;;;11.68;10.48;;;;;;;;;;5072081;28;20044;-38
2021/06/23 04:11:45;;;;;;;11.48;10.38;;;;;;;;;;5072283;28;20036;-37
2021/06/23 04:14:12;;;;;;;10.73;9.73;;;;;;;;;;5072245;28;20064;-38
2021/06/23 04:16:39;;;;;;;11.75;10.55;;;;;;;;;;5070919;28;20048;-38
2021/06/23 04:19:07;;;;;;;12.15;11.00;;;;;;;;;;5069163;28;20098;-38
2021/06/23 04:21:42;;;;;;;12.27;11.02;;;;;;;;;;5055860;28;20066;-38
2021/06/23 04:24:11;;;;;;;11.80;10.60;;;;;;;;;;5053098;28;20144;-38
2021/06/23 04:26:41;;;;;;;11.95;10.75;;;;;;;;;;5055598;28;20044;-38
2021/06/23 04:29:09;;;;;;;16.40;11.65;;;;;;;;;;5072867;28;20131;-38
2021/06/23 04:31:37;;;;;;;13.55;12.25;;;;;;;;;;5064529;28;20040;-38
2021/06/23 04:34:04;;;;;;;14.20;12.73;;;;;;;;;;5067433;28;20114;-37
2021/06/23 04:36:31;;;;;;;13.50;12.10;;;;;;;;;;5059862;28;20166;-38
2021/06/23 04:38:58;;;;;;;13.85;12.50;;;;;;;;;;5073791;28;20056;-37
2021/06/23 04:41:29;;;;;;;14.00;12.60;;;;;;;;;;5052373;28;20198;-38
2021/06/23 04:43:56;;;;;;;12.98;11.68;;;;;;;;;;5031856;28;20575;-37
2021/06/23 04:46:23;;;;;;;14.63;12.60;;;;;;;;;;5060163;28;20053;-37
2021/06/23 04:48:50;;;;;;;14.73;12.10;;;;;;;;;;5049006;28;20529;-38
2021/06/23 04:51:29;;;;;;;16.02;14.40;;;;;;;;;;5049755;28;20061;-38
2021/06/23 04:53:56;;;;;;;16.48;14.77;;;;;;;;;;5071461;28;20049;-38
2021/06/23 04:56:23;;;;;;;20.58;18.05;;;;;;;;;;5072354;28;20128;-38
2021/06/23 04:58:50;;;;;;;20.90;17.77;;;;;;;;;;5070228;28;20056;-38
2021/06/23 05:01:17;;;;;;;25.10;21.42;;;;;;;;;;5050404;28;20115;-37
2021/06/23 05:03:48;;;;;;;21.67;19.55;;;;;;;;;;5048875;28;20053;-38
2021/06/23 05:06:16;;;;;;;22.17;19.90;;;;;;;;;;5066148;22;20052;-37
2021/06/23 05:08:43;;;;;;;25.02;21.05;;;;;;;;;;5051251;28;20099;-36
2021/06/23 05:11:21;;;;;;;23.92;21.55;;;;;;;;;;5052404;28;20053;-36
2021/06/23 05:13:47;;;;;;;23.10;20.60;;;;;;;;;;5049477;28;20458;-36
2021/06/23 05:16:26;;;;;;;21.02;18.83;;;;;;;;;;5044872;28;20053;-37
2021/06/23 05:18:56;;;;;;;22.92;19.50;;;;;;;;;;5052772;28;20053;-36
2021/06/23 05:21:23;;;;;;;23.35;21.05;;;;;;;;;;5047092;28;20053;-36
2021/06/23 05:23:54;;;;;;;21.83;19.38;;;;;;;;;;5049502;28;20575;-36
2021/06/23 05:26:21;;;;;;;22.00;19.63;;;;;;;;;;5050995;28;20040;-36
2021/06/23 05:28:47;;;;;;;22.83;19.75;;;;;;;;;;5044239;28;20481;-37
2021/06/23 05:31:14;;;;;;;22.13;17.15;;;;;;;;;;5045896;28;20132;-37
2021/06/23 05:33:41;;;;;;;18.90;17.00;;;;;;;;;;5050678;28;20041;-36
2021/06/23 05:36:08;;;;;;;21.02;18.92;;;;;;;;;;5044586;28;20037;-37
2021/06/23 05:38:34;;;;;;;19.83;17.75;;;;;;;;;;5046916;28;20040;-36
2021/06/23 05:41:01;;;;;;;20.42;18.27;;;;;;;;;;5047905;28;20053;-37
2021/06/23 05:43:28;;;;;;;18.92;17.02;;;;;;;;;;5040076;28;20083;-36
2021/06/23 05:45:55;;;;;;;21.20;17.58;;;;;;;;;;5044877;28;20124;-36
2021/06/23 05:48:22;;;;;;;20.25;18.10;;;;;;;;;;5015260;28;20100;-37
2021/06/23 05:50:49;;;;;;;22.88;19.70;;;;;;;;;;5038819;28;20127;-37
2021/06/23 05:53:16;;;;;;;21.73;19.52;;;;;;;;;;5043162;28;20095;-36
2021/06/23 05:55:42;;;;;;;23.60;20.38;;;;;;;;;;5039629;28;20037;-37
2021/06/23 05:58:09;;;;;;;20.52;18.42;;;;;;;;;;5037512;28;20128;-37
2021/06/23 06:00:39;;;;;;;22.80;20.30;;;;;;;;;;5042963;28;20061;-36
2021/06/23 06:03:06;;;;;;;22.52;20.15;;;;;;;;;;5053915;28;20060;-36
2021/06/23 06:05:33;;;;;;;17.88;15.82;;;;;;;;;;5035606;28;20460;-36
2021/06/23 06:08:00;;;;;;;18.65;16.75;;;;;;;;;;5055660;28;20048;-36
2021/06/23 06:10:27;;;;;;;20.75;18.65;;;;;;;;;;5046420;28;20045;-36
2021/06/23 06:13:03;;;;;;;19.88;17.75;;;;;;;;;;5047489;28;20604;-36
2021/06/23 06:15:30;;;;;;;21.73;19.25;;;;;;;;;;5048162;28;20045;-36
2021/06/23 06:18:03;;;;;;;19.95;17.88;;;;;;;;;;5051849;28;20052;-37
2021/06/23 06:20:30;;;;;;;21.40;18.17;;;;;;;;;;5048101;28;20128;-36
2021/06/23 06:22:57;;;;;;;20.42;17.98;;;;;;;;;;5043386;28;20048;-37
2021/06/23 06:25:24;;;;;;;18.58;16.67;;;;;;;;;;5050553;28;20510;-36
2021/06/23 06:27:51;;;;;;;19.33;17.15;;;;;;;;;;5050565;28;20103;-37
2021/06/23 06:30:19;;;;;;;21.80;19.63;;;;;;;;;;5046965;28;20124;-36
2021/06/23 06:32:46;;;;;;;19.35;17.45;;;;;;;;;;5043581;28;20139;-36
2021/06/23 06:35:13;;;;;;;18.98;16.98;;;;;;;;;;5046215;28;20075;-36
2021/06/23 06:37:40;;;;;;;20.35;18.30;;;;;;;;;;5049898;28;20046;-36
2021/06/23 06:40:07;;;;;;;19.08;17.17;;;;;;;;;;5046033;28;20060;-37
2021/06/23 06:42:34;;;;;;;18.42;16.33;;;;;;;;;;5069161;28;20052;-36
2021/06/23 06:45:02;;;;;;;16.35;14.70;;;;;;;;;;5045288;28;20132;-36
2021/06/23 06:47:29;;;;;;;22.13;18.02;;;;;;;;;;5031411;28;20053;-36
2021/06/23 06:49:56;;;;;;;18.67;16.80;;;;;;;;;;5034474;28;20118;-37
2021/06/23 06:52:22;;;;;;;19.63;17.63;;;;;;;;;;5040053;28;20125;-36
2021/06/23 06:54:49;;;;;;;14.05;12.75;;;;;;;;;;5031914;28;20046;-36
2021/06/23 06:57:16;;;;;;;14.05;12.73;;;;;;;;;;5050791;28;20091;-37
2021/06/23 06:59:43;;;;;;;15.55;14.02;;;;;;;;;;5050773;28;20083;-37
2021/06/23 07:02:10;;;;;;;15.52;13.85;;;;;;;;;;5038863;28;20100;-36
2021/06/23 07:04:37;;;;;;;16.92;15.13;;;;;;;;;;5049388;28;20049;-36
2021/06/23 07:07:04;;;;;;;17.67;14.45;;;;;;;;;;5050324;28;20072;-36
2021/06/23 07:09:31;;;;;;;17.23;15.15;;;;;;;;;;5045329;28;20079;-36
2021/06/23 07:11:57;;;;;;;15.98;14.38;;;;;;;;;;5048268;28;20404;-36
2021/06/23 07:14:24;;;;;;;15.65;14.10;;;;;;;;;;5055862;28;20053;-36
2021/06/23 07:16:51;;;;;;;16.08;14.40;;;;;;;;;;5050371;28;20091;-36
2021/06/23 07:19:18;;;;;;;16.67;14.95;;;;;;;;;;5066559;28;20057;-36
2021/06/23 07:21:45;;;;;;;15.50;13.90;;;;;;;;;;5046808;28;20109;-37
2021/06/23 07:24:16;;;;;;;16.25;14.57;;;;;;;;;;5064687;28;20049;-36
2021/06/23 07:26:45;;;;;;;18.65;16.33;;;;;;;;;;5055022;28;20104;-37
2021/06/23 07:29:12;;;;;;;15.48;14.07;;;;;;;;;;5054436;28;20055;-36
2021/06/23 07:31:49;;;;;;;15.50;14.00;;;;;;;;;;5043727;28;20048;-37
2021/06/23 07:34:33;;;;;;;16.23;14.73;;;;;;;;;;5046341;28;20064;-38
2021/06/23 07:37:06;;;;;;;16.88;15.18;;;;;;;;;;5048453;28;20080;-37
2021/06/23 07:39:34;;;;;;;16.15;14.55;;;;;;;;;;5046405;28;20080;-38
2021/06/23 07:42:02;;;;;;;13.38;12.18;;;;;;;;;;5045419;28;20103;-37
2021/06/23 07:44:47;;;;;;;15.70;14.05;;;;;;;;;;5048778;28;20157;-37
2021/06/23 07:47:18;;;;;;;16.10;14.38;;;;;;;;;;5050077;28;20072;-37
2021/06/23 07:49:46;;;;;;;15.25;13.45;;;;;;;;;;5051080;28;20445;-36
2021/06/23 08:11:21;;;;;;;10.02;9.02;;;;;;;;;;5062280;28;20140;-35
2021/06/23 08:13:48;;;;;;;9.38;8.18;;;;;;;;;;5036448;28;20110;-36
2021/06/23 08:16:16;;;;;;;7.38;6.65;;;;;;;;;;5057490;28;20073;-37
2021/06/23 08:18:43;;;;;;;8.05;7.25;;;;;;;;;;5052285;28;20046;-34
2021/06/23 08:21:09;;;;;;;6.70;5.78;;;;;;;;;;5047378;28;20154;-35
2021/06/23 08:23:36;;;;;;;6.63;6.03;;;;;;;;;;5056716;28;20106;-35
2021/06/23 08:26:03;;;;;;;6.88;5.47;;;;;;;;;;5036838;28;20061;-35
2021/06/23 08:28:30;;;;;;;7.32;6.63;;;;;;;;;;5046497;28;20135;-35
2021/06/23 08:30:56;;;;;;;7.28;6.07;;;;;;;;;;5046463;28;20041;-34
2021/06/23 08:33:25;;;;;;;9.80;6.30;;;;;;;;;;5052605;28;20057;-35
2021/06/23 08:35:53;;;;;;;6.75;6.07;;;;;;;;;;5053343;28;20084;-35
2021/06/23 08:38:20;;;;;;;7.32;6.63;;;;;;;;;;5051445;28;20052;-36
2021/06/23 08:40:48;;;;;;;6.18;5.57;;;;;;;;;;5057809;28;20123;-35
2021/06/23 08:43:16;;;;;;;7.75;5.53;;;;;;;;;;5055134;28;20048;-35
2021/06/23 08:45:43;;;;;;;5.00;4.45;;;;;;;;;;5058728;28;20401;-35
2021/06/23 08:48:11;;;;;;;6.05;4.63;;;;;;;;;;5048658;28;20445;-36
2021/06/23 08:50:38;;;;;;;5.45;4.80;;;;;;;;;;5054431;28;20048;-35
2021/06/23 08:53:05;;;;;;;7.05;5.88;;;;;;;;;;5045024;28;20048;-35
2021/06/23 08:55:32;;;;;;;5.63;5.03;;;;;;;;;;5047508;28;20067;-36
2021/06/23 08:57:59;;;;;;;6.13;5.28;;;;;;;;;;5046221;28;20500;-36
2021/06/23 09:00:27;;;;;;;5.50;5.00;;;;;;;;;;5046962;28;20421;-36
2021/06/23 09:03:05;;;;;;;5.90;4.55;;;;;;;;;;5043235;28;20128;-36
2021/06/23 09:05:49;;;;;;;5.60;4.45;;;;;;;;;;5051254;28;20436;-36
2021/06/23 09:08:15;;;;;;;;;;;;;;;;;;5044379;28;20706;-36
2021/06/23 09:10:42;;;;;;;6.70;4.50;;;;;;;;;;5044778;28;20405;-36
2021/06/23 09:13:10;;;;;;;4.97;4.35;;;;;;;;;;5051475;28;20508;-36
2021/06/23 09:15:41;;;;;;;4.53;4.10;;;;;;;;;;5048833;28;20045;-36
2021/06/23 09:18:11;;;;;;;4.65;4.18;;;;;;;;;;5050830;28;20084;-35
2021/06/23 09:20:38;;;;;;;6.28;5.05;;;;;;;;;;5051778;28;20053;-37
2021/06/23 09:23:06;;;;;;;5.15;4.35;;;;;;;;;;5041219;28;20114;-37
2021/06/23 09:25:34;;;;;;;6.00;5.10;;;;;;;;;;5049058;28;20048;-36
2021/06/23 09:28:03;;;;;;;7.57;4.00;;;;;;;;;;5059018;28;20517;-37
2021/06/23 09:30:37;;;;;;;4.57;4.15;;;;;;;;;;5051057;28;20052;-36
2021/06/23 09:33:07;;;;;;;5.20;3.47;;;;;;;;;;5054405;28;20060;-37
2021/06/23 09:35:35;;;;;;;6.55;4.80;;;;;;;;;;5056736;28;20048;-37
2021/06/23 09:38:02;;;;;;;6.85;4.60;;;;;;;;;;5045777;28;20391;-37
2021/06/23 09:40:30;;;;;;;5.78;4.85;;;;;;;;;;5055608;28;20045;-37
2021/06/23 09:43:01;;;;;;;4.40;4.00;;;;;;;;;;5050436;28;20080;-37
2021/06/23 09:45:29;;;;;;;4.63;3.83;;;;;;;;;;5050372;28;20048;-37
2021/06/23 09:47:59;;;;;;;6.03;4.68;;;;;;;;;;5053479;28;20053;-37
2021/06/23 09:50:28;;;;;;;5.35;4.13;;;;;;;;;;5048281;28;20071;-37
2021/06/23 09:53:02;;;;;;;5.80;4.40;;;;;;;;;;5051890;28;20136;-37
2021/06/23 09:55:36;;;;;;;7.55;4.35;;;;;;;;;;5049194;28;20075;-37
2021/06/23 09:58:11;;;;;;;5.05;4.50;;;;;;;;;;5058895;28;20126;-37
2021/06/23 10:00:59;;;;;;;6.55;4.93;;;;;;;;;;5043746;28;20323;-37
2021/06/23 10:03:27;;;;;;;5.70;4.47;;;;;;;;;;5051601;28;20045;-37
2021/06/23 10:05:54;;;;;;;7.63;4.50;;;;;;;;;;5050115;28;20079;-36
2021/06/23 10:08:25;;;;;;;5.97;4.80;;;;;;;;;;5045836;28;20049;-35
2021/06/23 10:10:52;;;;;;;7.03;5.55;;;;;;;;;;5049302;28;20064;-35
2021/06/23 10:13:18;;;;;;;5.72;4.30;;;;;;;;;;5049229;28;20079;-35
2021/06/23 10:15:49;;;;;;;5.15;3.70;;;;;;;;;;5035109;28;20407;-35
2021/06/23 10:18:17;;;;;;;5.30;4.55;;;;;;;;;;5041357;28;20076;-35
2021/06/23 10:20:45;;;;;;;5.47;4.80;;;;;;;;;;5049484;28;20065;-35
2021/06/23 10:23:12;;;;;;;6.15;4.28;;;;;;;;;;5050569;28;20660;-35
2021/06/23 10:25:39;;;;;;;5.80;4.93;;;;;;;;;;5059984;28;20072;-35
2021/06/23 10:28:07;;;;;;;6.18;4.30;;;;;;;;;;5053773;28;20052;-35
2021/06/23 10:30:33;;;;;;;5.68;3.55;;;;;;;;;;5042627;28;20068;-36
2021/06/23 10:33:00;;;;;;;4.78;3.97;;;;;;;;;;5039001;28;20057;-36
2021/06/23 10:35:27;;;;;;;5.75;3.80;;;;;;;;;;5065508;28;20057;-36
2021/06/23 10:37:55;;;;;;;4.45;3.53;;;;;;;;;;5049601;28;20144;-36
2021/06/23 10:40:25;;;;;;;5.22;4.60;;;;;;;;;;5051118;28;20053;-36
2021/06/23 10:42:52;;;;;;;4.60;4.20;;;;;;;;;;5054982;28;20465;-36
2021/06/23 10:45:19;;;;;;;5.53;4.25;;;;;;;;;;5057655;28;20083;-35
2021/06/23 10:47:46;;;;;;;4.75;4.18;;;;;;;;;;5067546;28;20726;-36
2021/06/23 10:50:16;;;;;;;7.60;4.10;;;;;;;;;;5054215;28;20103;-37
2021/06/23 10:52:43;;;;;;;4.75;3.65;;;;;;;;;;5041885;28;20046;-35
2021/06/23 10:55:13;;;;;;;5.00;4.13;;;;;;;;;;5046726;28;20132;-36
2021/06/23 10:57:42;;;;;;;7.45;3.60;;;;;;;;;;5053371;28;20055;-36
2021/06/23 11:00:12;;;;;;;6.28;3.92;;;;;;;;;;5054936;28;20076;-35
2021/06/23 11:02:41;;;;;;;4.95;3.40;;;;;;;;;;5051230;28;20053;-36
2021/06/23 11:05:09;;;;;;;4.82;2.70;;;;;;;;;;5054517;28;20049;-36
2021/06/23 11:07:38;;;;;;;3.95;3.00;;;;;;;;;;5063373;28;20048;-35
2021/06/23 11:10:12;;;;;;;3.63;2.75;;;;;;;;;;5093910;22;20048;-38
2021/06/23 11:12:49;;;;;;;4.97;2.47;;;;;;;;;;5095384;28;20079;-39
2021/06/23 11:15:18;;;;;;;3.55;2.67;;;;;;;;;;5093986;28;20052;-39
2021/06/23 11:17:46;;;;;;;11.00;3.42;;;;;;;;;;5090656;28;20044;-38
2021/06/23 11:20:18;;;;;;;4.72;2.72;;;;;;;;;;5085280;28;20049;-39
2021/06/23 11:22:45;;;;;;;;;;;;;;;;;;5072096;28;20060;-38
2021/06/23 11:25:18;;;;;;;4.97;3.05;;;;;;;;;;5090370;28;20034;-40
2021/06/23 11:27:45;;;;;;;3.92;3.10;;;;;;;;;;5061266;28;20049;-42
2021/06/23 11:30:21;;;;;;;4.18;3.03;;;;;;;;;;5064553;28;20053;-41
2021/06/23 11:32:49;;;;;;;6.15;3.45;;;;;;;;;;5068248;28;20493;-41
2021/06/23 11:35:16;;;;;;;8.23;3.00;;;;;;;;;;5062861;28;20048;-38
2021/06/23 11:37:43;;;;;;;4.28;3.00;;;;;;;;;;5077255;28;20146;-39
2021/06/23 11:40:12;;;;;;;8.35;2.60;;;;;;;;;;5074814;28;20366;-40
2021/06/23 11:42:38;;;;;;;7.82;2.72;;;;;;;;;;5074391;28;20056;-39
2021/06/23 11:45:06;;;;;;;4.88;2.85;;;;;;;;;;5051938;28;20450;-39
2021/06/23 11:47:32;;;;;;;4.45;2.70;;;;;;;;;;5065727;28;20052;-39
2021/06/23 11:49:59;;;;;;;5.15;3.20;;;;;;;;;;5078611;28;20048;-41
2021/06/23 11:52:26;;;;;;;6.45;3.20;;;;;;;;;;5080953;28;20292;-40
2021/06/23 11:54:53;;;;;;;4.80;3.75;;;;;;;;;;5071120;28;20056;-39
2021/06/23 11:57:19;;;;;;;4.53;3.83;;;;;;;;;;5072903;28;20137;-41
2021/06/23 11:59:48;;;;;;;5.43;3.80;;;;;;;;;;5062883;28;20044;-39
2021/06/23 12:02:15;;;;;;;4.43;3.80;;;;;;;;;;5094805;28;20072;-40
2021/06/23 12:04:42;;;;;;;6.45;4.00;;;;;;;;;;5065156;28;20070;-40
2021/06/23 12:07:08;;;;;;;5.07;3.60;;;;;;;;;;5066612;28;20040;-40
2021/06/23 12:09:35;;;;;;;5.90;3.47;;;;;;;;;;5075037;28;20048;-39
2021/06/23 12:12:02;;;;;;;5.10;3.85;;;;;;;;;;5064563;28;20084;-40
2021/06/23 12:14:29;;;;;;;7.30;3.53;;;;;;;;;;5066566;28;20044;-40
2021/06/23 12:16:56;;;;;;;3.72;3.40;;;;;;;;;;5070384;28;20060;-40
2021/06/23 12:19:23;;;;;;;4.68;3.70;;;;;;;;;;5073120;28;20094;-40
2021/06/23 12:21:50;;;;;;;6.38;3.80;;;;;;;;;;5070979;28;20095;-40
2021/06/23 12:24:17;;;;;;;5.78;4.18;;;;;;;;;;5072835;28;20079;-43
2021/06/23 12:26:44;;;;;;;4.65;3.90;;;;;;;;;;5072190;28;20143;-40
2021/06/23 12:29:10;;;;;;;5.40;3.80;;;;;;;;;;5070781;28;20124;-41
2021/06/23 12:31:38;;;;;;;5.88;4.00;;;;;;;;;;5072994;28;20056;-40
2021/06/23 12:34:08;;;;;;;4.78;4.20;;;;;;;;;;5065161;28;20056;-41
2021/06/23 12:36:35;;;;;;;6.93;4.20;;;;;;;;;;5064835;28;20045;-41
2021/06/23 12:39:02;;;;;;;6.88;3.92;;;;;;;;;;5069262;28;20080;-41
2021/06/23 12:41:29;;;;;;;5.00;4.30;;;;;;;;;;5055943;28;20072;-40
2021/06/23 12:43:56;;;;;;;5.88;4.15;;;;;;;;;;5061106;28;20071;-41
2021/06/23 12:46:23;;;;;;;5.25;4.28;;;;;;;;;;5070740;28;20093;-44
2021/06/23 12:48:50;;;;;;;15.50;7.80;;;;;;;;;;5064948;28;20044;-42
2021/06/23 12:51:16;;;;;;;6.60;4.50;;;;;;;;;;5072176;28;20063;-43
2021/06/23 12:53:43;;;;;;;5.03;4.15;;;;;;;;;;5067048;28;20090;-43
2021/06/23 12:56:10;;;;;;;5.10;4.60;;;;;;;;;;5072641;28;20091;-42
2021/06/23 12:58:37;;;;;;;7.00;4.80;;;;;;;;;;5073112;28;20044;-43
2021/06/23 13:01:03;;;;;;;4.47;4.07;;;;;;;;;;5064958;28;20048;-42
2021/06/23 13:03:30;;;;;;;5.95;4.38;;;;;;;;;;5071553;28;20052;-45
2021/06/23 13:06:00;;;;;;;5.72;4.38;;;;;;;;;;5084510;28;20056;-42
2021/06/23 13:08:28;;;;;;;6.32;4.88;;;;;;;;;;5067236;28;20060;-42
2021/06/23 13:10:54;;;;;;;5.82;4.70;;;;;;;;;;5074808;28;20041;-44
2021/06/23 13:13:21;;;;;;;6.90;4.60;;;;;;;;;;5067494;28;20083;-40
2021/06/23 13:15:48;;;;;;;6.43;4.43;;;;;;;;;;5059257;28;20053;-42
2021/06/23 13:18:15;;;;;;;4.82;3.92;;;;;;;;;;5062641;28;20052;-42
2021/06/23 13:20:48;;;;;;;4.50;3.67;;;;;;;;;;5063611;28;20048;-40
2021/06/23 13:23:15;;;;;;;5.55;4.18;;;;;;;;;;5061683;28;20056;-41
2021/06/23 13:25:44;;;;;;;6.05;4.30;;;;;;;;;;5071039;28;20239;-42
2021/06/23 13:28:11;;;;;;;4.63;4.20;;;;;;;;;;5072161;28;20485;-41
2021/06/23 13:30:38;;;;;;;5.65;4.40;;;;;;;;;;5062156;28;20493;-41
2021/06/23 13:33:05;;;;;;;7.85;4.57;;;;;;;;;;5078630;28;20087;-41
2021/06/23 13:35:32;;;;;;;9.38;6.75;;;;;;;;;;5073452;28;20093;-42
2021/06/23 13:37:59;;;;;;;15.35;13.18;;;;;;;;;;5068578;28;20044;-44
2021/06/23 13:40:25;;;;;;;7.03;5.00;;;;;;;;;;5068853;28;20489;-41
2021/06/23 13:42:53;;;;;;;19.50;15.07;;;;;;;;;;5073112;28;20107;-38
2021/06/23 13:45:20;;;;;;;7.28;4.78;;;;;;;;;;5070375;28;20044;-39
2021/06/23 13:47:47;;;;;;;6.15;5.18;;;;;;;;;;5072224;28;20053;-39
2021/06/23 13:50:18;;;;;;;8.85;6.97;;;;;;;;;;5057210;28;20118;-38
2021/06/23 13:52:49;;;;;;;6.82;5.15;;;;;;;;;;5060424;28;20087;-39
2021/06/23 13:55:23;;;;;;;11.27;10.00;;;;;;;;;;5070597;28;20099;-39
2021/06/23 13:57:56;;;;;;;9.30;7.10;;;;;;;;;;5055123;28;20048;-38
2021/06/23 14:00:23;;;;;;;5.28;4.20;;;;;;;;;;5067462;28;20060;-40
2021/06/23 14:02:50;;;;;;;6.20;4.75;;;;;;;;;;5066739;28;20080;-39
2021/06/23 14:05:17;;;;;;;5.38;4.00;;;;;;;;;;5068733;28;20063;-40
2021/06/23 14:07:44;;;;;;;5.55;4.68;;;;;;;;;;5070523;28;20041;-40
2021/06/23 14:10:11;;;;;;;6.00;4.70;;;;;;;;;;5063559;28;20072;-39
2021/06/23 14:12:38;;;;;;;5.45;4.13;;;;;;;;;;5073128;28;20455;-39
2021/06/23 14:15:05;;;;;;;5.43;4.38;;;;;;;;;;5083077;28;20048;-40
2021/06/23 14:17:32;;;;;;;6.15;5.03;;;;;;;;;;5074719;28;20476;-40
2021/06/23 14:19:59;;;;;;;6.80;5.00;;;;;;;;;;5074910;28;20421;-40
2021/06/23 14:22:26;;;;;;;5.65;4.70;;;;;;;;;;5061112;28;20126;-40
2021/06/23 14:24:58;;;;;;;5.68;4.45;;;;;;;;;;5068427;28;20045;-40
2021/06/23 14:27:29;;;;;;;5.97;4.78;;;;;;;;;;5071102;28;20052;-41
2021/06/23 14:29:56;;;;;;;5.82;4.57;;;;;;;;;;5070050;28;20476;-41
2021/06/23 14:32:24;;;;;;;5.30;4.60;;;;;;;;;;5068238;28;20123;-42
2021/06/23 14:34:51;;;;;;;5.22;4.68;;;;;;;;;;5052886;28;20049;-45
2021/06/23 14:37:18;;;;;;;6.70;4.80;;;;;;;;;;5071114;28;20044;-41
2021/06/23 14:39:44;;;;;;;7.40;4.90;;;;;;;;;;5066526;28;20049;-41
2021/06/23 14:42:11;;;;;;;6.70;4.57;;;;;;;;;;5050851;28;20056;-42
2021/06/23 14:44:38;;;;;;;7.45;4.85;;;;;;;;;;5054763;28;20052;-39
2021/06/23 14:47:05;;;;;;;5.45;4.82;;;;;;;;;;5070437;28;20072;-41
2021/06/23 14:49:32;;;;;;;5.93;4.97;;;;;;;;;;5053224;28;20036;-42
2021/06/23 14:51:59;;;;;;;7.70;4.72;;;;;;;;;;5064120;28;20053;-41
2021/06/23 14:54:26;;;;;;;5.88;5.20;;;;;;;;;;5053424;28;20092;-42
2021/06/23 14:56:52;;;;;;;5.40;4.90;;;;;;;;;;5070192;28;20102;-39
2021/06/23 14:59:19;;;;;;;5.18;4.57;;;;;;;;;;5070514;28;20053;-44
2021/06/23 15:01:46;;;;;;;7.25;4.68;;;;;;;;;;5063348;28;20736;-43
2021/06/23 15:04:14;;;;;;;4.95;4.43;;;;;;;;;;5084621;28;20139;-44